GRZ522 Details

Departure: Adak Airport (PADK)
Arrival: Eareckson Air Station (PASY)
Route: ADK J115 SYA
Notes: USTRANSCOM CONTRACT FLIGHT


Current Weather Information
PADK 250156Z AUTO 01018G22KT 8SM OVC010 06/04 A3004 RMK AO2 PK WND 02026/0107 CIG 007V013 SLP174 T00560039
PASY 250155Z 17009KT 10SM OVC008 04/02 A3020 RMK AO2A CIG 006V009 SLP228 T00420024 RVRNO $